sensor_id;sensor_type;location;lat;lon;timestamp;P1;durP1;ratioP1;P2;durP2;ratioP2
6185;SDS011;3126;52.738;8.316;2023-05-10T00:04:29;14.27;;;11.98;;
6185;SDS011;3126;52.738;8.316;2023-05-10T00:09:30;15.95;;;12.20;;
6185;SDS011;3126;52.738;8.316;2023-05-10T00:14:30;15.75;;;13.25;;
6185;SDS011;3126;52.738;8.316;2023-05-10T00:19:31;18.17;;;13.10;;
6185;SDS011;3126;52.738;8.316;2023-05-10T00:24:32;16.65;;;12.68;;
6185;SDS011;3126;52.738;8.316;2023-05-10T00:29:32;17.80;;;12.73;;
6185;SDS011;3126;52.738;8.316;2023-05-10T00:34:33;19.55;;;13.38;;
6185;SDS011;3126;52.738;8.316;2023-05-10T00:39:34;17.48;;;12.70;;
6185;SDS011;3126;52.738;8.316;2023-05-10T00:44:34;12.50;;;9.90;;
6185;SDS011;3126;52.738;8.316;2023-05-10T00:49:35;5.60;;;4.93;;
6185;SDS011;3126;52.738;8.316;2023-05-10T00:54:36;9.50;;;7.78;;
6185;SDS011;3126;52.738;8.316;2023-05-10T00:59:37;10.70;;;8.45;;
6185;SDS011;3126;52.738;8.316;2023-05-10T01:04:37;10.43;;;8.30;;
6185;SDS011;3126;52.738;8.316;2023-05-10T01:09:39;13.85;;;9.52;;
6185;SDS011;3126;52.738;8.316;2023-05-10T01:14:40;11.63;;;8.77;;
6185;SDS011;3126;52.738;8.316;2023-05-10T01:19:40;11.48;;;8.95;;
6185;SDS011;3126;52.738;8.316;2023-05-10T01:35:17;11.52;;;9.35;;
6185;SDS011;3126;52.738;8.316;2023-05-10T01:40:26;12.50;;;9.65;;
6185;SDS011;3126;52.738;8.316;2023-05-10T01:45:38;13.93;;;9.85;;
6185;SDS011;3126;52.738;8.316;2023-05-10T01:50:45;12.82;;;9.32;;
6185;SDS011;3126;52.738;8.316;2023-05-10T01:55:48;11.90;;;9.75;;
6185;SDS011;3126;52.738;8.316;2023-05-10T02:00:52;10.43;;;8.68;;
6185;SDS011;3126;52.738;8.316;2023-05-10T02:05:54;10.50;;;8.63;;
6185;SDS011;3126;52.738;8.316;2023-05-10T02:10:56;9.15;;;8.05;;
6185;SDS011;3126;52.738;8.316;2023-05-10T02:15:57;12.80;;;9.70;;
6185;SDS011;3126;52.738;8.316;2023-05-10T02:20:59;12.73;;;10.02;;
6185;SDS011;3126;52.738;8.316;2023-05-10T02:26:02;13.25;;;9.10;;
6185;SDS011;3126;52.738;8.316;2023-05-10T02:31:03;11.55;;;9.07;;
6185;SDS011;3126;52.738;8.316;2023-05-10T02:36:06;12.40;;;10.13;;
6185;SDS011;3126;52.738;8.316;2023-05-10T02:41:08;11.70;;;9.63;;
6185;SDS011;3126;52.738;8.316;2023-05-10T02:46:11;11.48;;;9.38;;
6185;SDS011;3126;52.738;8.316;2023-05-10T02:51:11;10.80;;;9.48;;
6185;SDS011;3126;52.738;8.316;2023-05-10T02:56:23;16.52;;;11.25;;
6185;SDS011;3126;52.738;8.316;2023-05-10T03:01:28;13.07;;;10.48;;
6185;SDS011;3126;52.738;8.316;2023-05-10T03:06:29;14.43;;;10.65;;
6185;SDS011;3126;52.738;8.316;2023-05-10T03:11:32;7.82;;;6.28;;
6185;SDS011;3126;52.738;8.316;2023-05-10T03:16:41;4.18;;;3.53;;
6185;SDS011;3126;52.738;8.316;2023-05-10T03:21:47;3.63;;;3.03;;
6185;SDS011;3126;52.738;8.316;2023-05-10T03:26:51;4.07;;;3.30;;
6185;SDS011;3126;52.738;8.316;2023-05-10T03:31:57;3.92;;;2.80;;
6185;SDS011;3126;52.738;8.316;2023-05-10T03:36:59;3.67;;;2.90;;
6185;SDS011;3126;52.738;8.316;2023-05-10T03:41:59;4.45;;;2.63;;
6185;SDS011;3126;52.738;8.316;2023-05-10T03:47:00;3.67;;;2.50;;
6185;SDS011;3126;52.738;8.316;2023-05-10T03:52:00;3.28;;;2.97;;
6185;SDS011;3126;52.738;8.316;2023-05-10T03:57:01;6.40;;;3.90;;
6185;SDS011;3126;52.738;8.316;2023-05-10T04:02:02;3.90;;;3.50;;
6185;SDS011;3126;52.738;8.316;2023-05-10T04:07:03;4.28;;;3.55;;
6185;SDS011;3126;52.738;8.316;2023-05-10T04:12:04;4.57;;;3.60;;
6185;SDS011;3126;52.738;8.316;2023-05-10T04:17:05;4.00;;;3.58;;
6185;SDS011;3126;52.738;8.316;2023-05-10T04:22:06;6.38;;;4.68;;
6185;SDS011;3126;52.738;8.316;2023-05-10T04:27:06;5.68;;;4.22;;
6185;SDS011;3126;52.738;8.316;2023-05-10T04:32:07;3.80;;;3.13;;
6185;SDS011;3126;52.738;8.316;2023-05-10T04:37:08;4.93;;;3.05;;
6185;SDS011;3126;52.738;8.316;2023-05-10T04:42:08;4.07;;;3.10;;
6185;SDS011;3126;52.738;8.316;2023-05-10T04:47:09;6.97;;;3.90;;
6185;SDS011;3126;52.738;8.316;2023-05-10T04:52:09;6.55;;;3.90;;
6185;SDS011;3126;52.738;8.316;2023-05-10T04:57:11;5.13;;;4.07;;
6185;SDS011;3126;52.738;8.316;2023-05-10T05:02:11;6.88;;;4.38;;
6185;SDS011;3126;52.738;8.316;2023-05-10T05:07:12;6.68;;;5.13;;
6185;SDS011;3126;52.738;8.316;2023-05-10T05:12:12;6.15;;;5.22;;
6185;SDS011;3126;52.738;8.316;2023-05-10T05:17:14;6.97;;;4.82;;
6185;SDS011;3126;52.738;8.316;2023-05-10T05:22:14;9.15;;;5.53;;
6185;SDS011;3126;52.738;8.316;2023-05-10T05:27:15;8.10;;;5.43;;
6185;SDS011;3126;52.738;8.316;2023-05-10T05:32:15;8.75;;;5.88;;
6185;SDS011;3126;52.738;8.316;2023-05-10T05:37:17;8.48;;;5.97;;
6185;SDS011;3126;52.738;8.316;2023-05-10T05:42:19;9.85;;;6.40;;
6185;SDS011;3126;52.738;8.316;2023-05-10T05:47:19;10.43;;;6.68;;
6185;SDS011;3126;52.738;8.316;2023-05-10T05:52:20;9.98;;;6.68;;
6185;SDS011;3126;52.738;8.316;2023-05-10T05:57:21;9.95;;;6.30;;
6185;SDS011;3126;52.738;8.316;2023-05-10T06:02:21;9.82;;;6.85;;
6185;SDS011;3126;52.738;8.316;2023-05-10T06:07:22;9.68;;;6.78;;
6185;SDS011;3126;52.738;8.316;2023-05-10T06:12:22;11.38;;;7.28;;
6185;SDS011;3126;52.738;8.316;2023-05-10T06:17:23;9.73;;;7.20;;
6185;SDS011;3126;52.738;8.316;2023-05-10T06:22:24;7.97;;;5.90;;
6185;SDS011;3126;52.738;8.316;2023-05-10T06:27:24;7.78;;;5.75;;
6185;SDS011;3126;52.738;8.316;2023-05-10T06:32:25;9.13;;;5.50;;
6185;SDS011;3126;52.738;8.316;2023-05-10T06:37:26;8.80;;;5.45;;
6185;SDS011;3126;52.738;8.316;2023-05-10T06:42:26;11.05;;;7.22;;
6185;SDS011;3126;52.738;8.316;2023-05-10T06:47:27;8.98;;;6.82;;
6185;SDS011;3126;52.738;8.316;2023-05-10T06:52:28;9.80;;;6.53;;
6185;SDS011;3126;52.738;8.316;2023-05-10T06:57:28;10.25;;;6.90;;
6185;SDS011;3126;52.738;8.316;2023-05-10T07:02:29;7.82;;;6.05;;
6185;SDS011;3126;52.738;8.316;2023-05-10T07:07:29;8.57;;;6.00;;
6185;SDS011;3126;52.738;8.316;2023-05-10T07:12:30;9.90;;;6.32;;
6185;SDS011;3126;52.738;8.316;2023-05-10T07:17:31;8.45;;;6.13;;
6185;SDS011;3126;52.738;8.316;2023-05-10T07:22:33;9.15;;;6.70;;
6185;SDS011;3126;52.738;8.316;2023-05-10T07:27:33;9.40;;;6.55;;
6185;SDS011;3126;52.738;8.316;2023-05-10T07:32:34;10.93;;;7.88;;
6185;SDS011;3126;52.738;8.316;2023-05-10T07:37:34;10.68;;;7.70;;
6185;SDS011;3126;52.738;8.316;2023-05-10T07:42:35;11.85;;;8.02;;
6185;SDS011;3126;52.738;8.316;2023-05-10T07:47:36;12.40;;;8.98;;
6185;SDS011;3126;52.738;8.316;2023-05-10T07:52:36;12.43;;;8.35;;
6185;SDS011;3126;52.738;8.316;2023-05-10T07:57:37;10.48;;;7.70;;
6185;SDS011;3126;52.738;8.316;2023-05-10T08:02:38;12.02;;;8.63;;
6185;SDS011;3126;52.738;8.316;2023-05-10T08:07:38;12.15;;;8.30;;
6185;SDS011;3126;52.738;8.316;2023-05-10T08:12:39;12.57;;;8.35;;
6185;SDS011;3126;52.738;8.316;2023-05-10T08:17:40;12.07;;;7.50;;
6185;SDS011;3126;52.738;8.316;2023-05-10T08:22:40;11.98;;;8.40;;
6185;SDS011;3126;52.738;8.316;2023-05-10T08:27:41;10.63;;;7.78;;
6185;SDS011;3126;52.738;8.316;2023-05-10T08:32:41;8.20;;;6.18;;
6185;SDS011;3126;52.738;8.316;2023-05-10T08:37:42;9.38;;;6.80;;
6185;SDS011;3126;52.738;8.316;2023-05-10T08:42:43;7.45;;;5.75;;
6185;SDS011;3126;52.738;8.316;2023-05-10T08:47:50;10.93;;;6.70;;
6185;SDS011;3126;52.738;8.316;2023-05-10T08:52:52;11.75;;;7.53;;
6185;SDS011;3126;52.738;8.316;2023-05-10T08:57:57;9.00;;;7.25;;
6185;SDS011;3126;52.738;8.316;2023-05-10T09:02:58;12.77;;;7.20;;
6185;SDS011;3126;52.738;8.316;2023-05-10T09:07:59;11.73;;;7.90;;
6185;SDS011;3126;52.738;8.316;2023-05-10T09:13:02;13.18;;;7.72;;
6185;SDS011;3126;52.738;8.316;2023-05-10T09:18:03;10.13;;;7.70;;
6185;SDS011;3126;52.738;8.316;2023-05-10T09:23:04;11.57;;;7.88;;
6185;SDS011;3126;52.738;8.316;2023-05-10T09:28:06;11.70;;;8.63;;
6185;SDS011;3126;52.738;8.316;2023-05-10T09:33:07;12.90;;;8.57;;
6185;SDS011;3126;52.738;8.316;2023-05-10T09:38:08;12.23;;;8.25;;
6185;SDS011;3126;52.738;8.316;2023-05-10T09:43:10;13.32;;;8.43;;
6185;SDS011;3126;52.738;8.316;2023-05-10T09:48:10;10.95;;;7.38;;
6185;SDS011;3126;52.738;8.316;2023-05-10T09:53:12;8.35;;;5.80;;
6185;SDS011;3126;52.738;8.316;2023-05-10T09:58:15;9.18;;;5.75;;
6185;SDS011;3126;52.738;8.316;2023-05-10T10:03:16;7.82;;;5.72;;
6185;SDS011;3126;52.738;8.316;2023-05-10T10:08:19;9.02;;;5.88;;
6185;SDS011;3126;52.738;8.316;2023-05-10T10:13:20;10.45;;;6.38;;
6185;SDS011;3126;52.738;8.316;2023-05-10T10:18:20;9.40;;;6.28;;
6185;SDS011;3126;52.738;8.316;2023-05-10T10:23:27;14.50;;;7.20;;
6185;SDS011;3126;52.738;8.316;2023-05-10T10:28:48;12.10;;;8.10;;
6185;SDS011;3126;52.738;8.316;2023-05-10T10:34:01;12.45;;;7.68;;
6185;SDS011;3126;52.738;8.316;2023-05-10T10:39:08;6.05;;;4.25;;
6185;SDS011;3126;52.738;8.316;2023-05-10T10:54:40;8.20;;;4.75;;
6185;SDS011;3126;52.738;8.316;2023-05-10T10:59:42;5.97;;;5.10;;
6185;SDS011;3126;52.738;8.316;2023-05-10T11:04:46;7.70;;;5.28;;
6185;SDS011;3126;52.738;8.316;2023-05-10T11:09:47;7.85;;;4.40;;
6185;SDS011;3126;52.738;8.316;2023-05-10T11:14:50;5.35;;;3.97;;
6185;SDS011;3126;52.738;8.316;2023-05-10T11:20:07;4.82;;;4.07;;
6185;SDS011;3126;52.738;8.316;2023-05-10T11:25:13;4.65;;;4.03;;
6185;SDS011;3126;52.738;8.316;2023-05-10T11:30:14;2.40;;;2.20;;
6185;SDS011;3126;52.738;8.316;2023-05-10T11:35:15;4.45;;;3.13;;
6185;SDS011;3126;52.738;8.316;2023-05-10T11:40:15;5.15;;;3.15;;
6185;SDS011;3126;52.738;8.316;2023-05-10T11:45:16;4.38;;;3.40;;
6185;SDS011;3126;52.738;8.316;2023-05-10T11:50:17;4.43;;;3.78;;
6185;SDS011;3126;52.738;8.316;2023-05-10T11:55:17;4.50;;;3.78;;
6185;SDS011;3126;52.738;8.316;2023-05-10T12:00:19;6.32;;;4.00;;
6185;SDS011;3126;52.738;8.316;2023-05-10T12:05:20;4.68;;;3.95;;
6185;SDS011;3126;52.738;8.316;2023-05-10T12:10:25;6.03;;;3.40;;
6185;SDS011;3126;52.738;8.316;2023-05-10T12:15:26;2.25;;;1.95;;
6185;SDS011;3126;52.738;8.316;2023-05-10T12:20:28;3.55;;;2.10;;
6185;SDS011;3126;52.738;8.316;2023-05-10T12:25:32;2.60;;;2.40;;
6185;SDS011;3126;52.738;8.316;2023-05-10T12:30:34;2.83;;;2.63;;
6185;SDS011;3126;52.738;8.316;2023-05-10T12:40:50;5.05;;;4.03;;
6185;SDS011;3126;52.738;8.316;2023-05-10T12:45:50;4.38;;;3.90;;
6185;SDS011;3126;52.738;8.316;2023-05-10T12:50:51;4.05;;;3.65;;
6185;SDS011;3126;52.738;8.316;2023-05-10T12:55:51;3.88;;;3.47;;
6185;SDS011;3126;52.738;8.316;2023-05-10T13:00:53;3.78;;;3.47;;
6185;SDS011;3126;52.738;8.316;2023-05-10T13:05:53;4.40;;;3.38;;
6185;SDS011;3126;52.738;8.316;2023-05-10T13:10:54;3.38;;;3.08;;
6185;SDS011;3126;52.738;8.316;2023-05-10T13:15:55;2.72;;;2.50;;
6185;SDS011;3126;52.738;8.316;2023-05-10T13:20:55;4.90;;;3.17;;
6185;SDS011;3126;52.738;8.316;2023-05-10T13:25:56;3.35;;;3.05;;
6185;SDS011;3126;52.738;8.316;2023-05-10T13:30:56;4.32;;;3.92;;
6185;SDS011;3126;52.738;8.316;2023-05-10T13:35:57;5.38;;;3.90;;
6185;SDS011;3126;52.738;8.316;2023-05-10T13:40:57;6.95;;;2.70;;
6185;SDS011;3126;52.738;8.316;2023-05-10T13:45:58;3.40;;;2.42;;
6185;SDS011;3126;52.738;8.316;2023-05-10T13:50:58;4.32;;;2.80;;
6185;SDS011;3126;52.738;8.316;2023-05-10T13:55:59;2.78;;;2.58;;
6185;SDS011;3126;52.738;8.316;2023-05-10T14:01:00;4.20;;;3.50;;
6185;SDS011;3126;52.738;8.316;2023-05-10T14:06:00;4.13;;;3.78;;
6185;SDS011;3126;52.738;8.316;2023-05-10T14:11:01;5.00;;;4.50;;
6185;SDS011;3126;52.738;8.316;2023-05-10T14:16:01;6.55;;;4.28;;
6185;SDS011;3126;52.738;8.316;2023-05-10T14:21:02;4.85;;;3.50;;
6185;SDS011;3126;52.738;8.316;2023-05-10T14:26:03;5.22;;;3.83;;
6185;SDS011;3126;52.738;8.316;2023-05-10T14:31:04;6.60;;;3.38;;
6185;SDS011;3126;52.738;8.316;2023-05-10T14:36:05;3.63;;;3.30;;
6185;SDS011;3126;52.738;8.316;2023-05-10T14:41:06;6.18;;;4.30;;
6185;SDS011;3126;52.738;8.316;2023-05-10T14:46:07;4.18;;;3.45;;
6185;SDS011;3126;52.738;8.316;2023-05-10T14:51:08;3.85;;;3.50;;
6185;SDS011;3126;52.738;8.316;2023-05-10T14:56:09;4.75;;;3.70;;
6185;SDS011;3126;52.738;8.316;2023-05-10T15:01:09;4.93;;;3.97;;
6185;SDS011;3126;52.738;8.316;2023-05-10T15:06:10;4.75;;;4.25;;
6185;SDS011;3126;52.738;8.316;2023-05-10T15:11:11;4.55;;;3.90;;
6185;SDS011;3126;52.738;8.316;2023-05-10T15:16:12;6.00;;;4.82;;
6185;SDS011;3126;52.738;8.316;2023-05-10T15:21:12;3.15;;;2.47;;
6185;SDS011;3126;52.738;8.316;2023-05-10T15:26:13;4.18;;;3.55;;
6185;SDS011;3126;52.738;8.316;2023-05-10T15:31:13;3.28;;;2.50;;
6185;SDS011;3126;52.738;8.316;2023-05-10T15:36:14;2.53;;;2.28;;
6185;SDS011;3126;52.738;8.316;2023-05-10T15:41:16;2.17;;;1.40;;
6185;SDS011;3126;52.738;8.316;2023-05-10T15:46:17;4.45;;;1.75;;
6185;SDS011;3126;52.738;8.316;2023-05-10T15:51:17;1.48;;;1.38;;
6185;SDS011;3126;52.738;8.316;2023-05-10T15:56:18;3.42;;;1.85;;
6185;SDS011;3126;52.738;8.316;2023-05-10T16:01:19;3.33;;;2.40;;
6185;SDS011;3126;52.738;8.316;2023-05-10T16:06:19;2.42;;;2.22;;
6185;SDS011;3126;52.738;8.316;2023-05-10T16:11:20;3.20;;;2.90;;
6185;SDS011;3126;52.738;8.316;2023-05-10T16:16:20;3.53;;;3.20;;
6185;SDS011;3126;52.738;8.316;2023-05-10T16:21:21;4.25;;;3.30;;
6185;SDS011;3126;52.738;8.316;2023-05-10T16:26:21;2.55;;;2.35;;
6185;SDS011;3126;52.738;8.316;2023-05-10T16:31:23;3.92;;;2.90;;
6185;SDS011;3126;52.738;8.316;2023-05-10T16:36:23;6.60;;;4.13;;
6185;SDS011;3126;52.738;8.316;2023-05-10T16:41:24;3.53;;;3.20;;
6185;SDS011;3126;52.738;8.316;2023-05-10T16:46:25;3.88;;;3.00;;
6185;SDS011;3126;52.738;8.316;2023-05-10T16:51:26;3.83;;;3.53;;
6185;SDS011;3126;52.738;8.316;2023-05-10T16:56:26;5.03;;;3.17;;
6185;SDS011;3126;52.738;8.316;2023-05-10T17:01:27;4.70;;;3.58;;
6185;SDS011;3126;52.738;8.316;2023-05-10T17:06:27;5.28;;;4.25;;
6185;SDS011;3126;52.738;8.316;2023-05-10T17:11:28;4.15;;;3.72;;
6185;SDS011;3126;52.738;8.316;2023-05-10T17:16:28;4.32;;;3.92;;
6185;SDS011;3126;52.738;8.316;2023-05-10T17:21:29;6.55;;;3.67;;
6185;SDS011;3126;52.738;8.316;2023-05-10T17:26:31;3.80;;;3.45;;
6185;SDS011;3126;52.738;8.316;2023-05-10T17:31:31;4.00;;;3.22;;
6185;SDS011;3126;52.738;8.316;2023-05-10T17:36:32;4.75;;;4.03;;
6185;SDS011;3126;52.738;8.316;2023-05-10T17:41:32;3.75;;;3.13;;
6185;SDS011;3126;52.738;8.316;2023-05-10T17:46:33;5.53;;;4.30;;
6185;SDS011;3126;52.738;8.316;2023-05-10T17:51:34;5.18;;;3.92;;
6185;SDS011;3126;52.738;8.316;2023-05-10T17:56:35;5.10;;;4.10;;
6185;SDS011;3126;52.738;8.316;2023-05-10T18:01:35;5.10;;;3.63;;
6185;SDS011;3126;52.738;8.316;2023-05-10T18:06:36;5.15;;;3.63;;
6185;SDS011;3126;52.738;8.316;2023-05-10T18:11:37;6.70;;;3.53;;
6185;SDS011;3126;52.738;8.316;2023-05-10T18:16:38;4.97;;;3.92;;
6185;SDS011;3126;52.738;8.316;2023-05-10T18:21:38;5.32;;;4.10;;
6185;SDS011;3126;52.738;8.316;2023-05-10T18:26:39;4.32;;;3.92;;
6185;SDS011;3126;52.738;8.316;2023-05-10T18:31:39;3.85;;;3.45;;
6185;SDS011;3126;52.738;8.316;2023-05-10T18:36:41;4.88;;;3.97;;
6185;SDS011;3126;52.738;8.316;2023-05-10T18:41:43;5.47;;;4.50;;
6185;SDS011;3126;52.738;8.316;2023-05-10T18:46:44;4.82;;;4.05;;
6185;SDS011;3126;52.738;8.316;2023-05-10T18:51:45;6.63;;;4.65;;
6185;SDS011;3126;52.738;8.316;2023-05-10T18:56:46;6.43;;;4.63;;
6185;SDS011;3126;52.738;8.316;2023-05-10T19:01:48;7.07;;;5.05;;
6185;SDS011;3126;52.738;8.316;2023-05-10T19:06:48;5.32;;;4.82;;
6185;SDS011;3126;52.738;8.316;2023-05-10T19:11:49;6.18;;;5.05;;
6185;SDS011;3126;52.738;8.316;2023-05-10T19:16:50;10.65;;;8.10;;
6185;SDS011;3126;52.738;8.316;2023-05-10T19:21:51;13.25;;;8.13;;
6185;SDS011;3126;52.738;8.316;2023-05-10T19:26:51;13.27;;;7.70;;
6185;SDS011;3126;52.738;8.316;2023-05-10T19:31:52;10.05;;;6.00;;
6185;SDS011;3126;52.738;8.316;2023-05-10T19:36:52;8.30;;;5.47;;
6185;SDS011;3126;52.738;8.316;2023-05-10T19:41:53;6.57;;;5.85;;
6185;SDS011;3126;52.738;8.316;2023-05-10T19:46:53;7.70;;;6.35;;
6185;SDS011;3126;52.738;8.316;2023-05-10T19:51:54;7.32;;;6.47;;
6185;SDS011;3126;52.738;8.316;2023-05-10T19:56:55;8.35;;;6.32;;
6185;SDS011;3126;52.738;8.316;2023-05-10T20:01:55;7.45;;;6.25;;
6185;SDS011;3126;52.738;8.316;2023-05-10T20:06:56;9.15;;;6.35;;
6185;SDS011;3126;52.738;8.316;2023-05-10T20:11:56;8.55;;;6.28;;
6185;SDS011;3126;52.738;8.316;2023-05-10T20:16:58;9.35;;;7.47;;
6185;SDS011;3126;52.738;8.316;2023-05-10T20:21:58;8.95;;;7.47;;
6185;SDS011;3126;52.738;8.316;2023-05-10T20:26:59;8.15;;;7.25;;
6185;SDS011;3126;52.738;8.316;2023-05-10T20:32:01;8.00;;;7.00;;
6185;SDS011;3126;52.738;8.316;2023-05-10T20:37:01;7.97;;;6.97;;
6185;SDS011;3126;52.738;8.316;2023-05-10T20:42:02;7.68;;;6.70;;
6185;SDS011;3126;52.738;8.316;2023-05-10T20:47:03;9.27;;;7.15;;
6185;SDS011;3126;52.738;8.316;2023-05-10T20:52:04;9.02;;;7.63;;
6185;SDS011;3126;52.738;8.316;2023-05-10T20:57:04;9.88;;;7.68;;
6185;SDS011;3126;52.738;8.316;2023-05-10T21:02:05;11.07;;;7.18;;
6185;SDS011;3126;52.738;8.316;2023-05-10T21:07:06;11.32;;;7.47;;
6185;SDS011;3126;52.738;8.316;2023-05-10T21:12:06;9.85;;;7.43;;
6185;SDS011;3126;52.738;8.316;2023-05-10T21:17:07;9.18;;;7.90;;
6185;SDS011;3126;52.738;8.316;2023-05-10T21:22:08;8.98;;;8.07;;
6185;SDS011;3126;52.738;8.316;2023-05-10T21:27:08;9.95;;;8.25;;
6185;SDS011;3126;52.738;8.316;2023-05-10T21:32:09;10.57;;;8.43;;
6185;SDS011;3126;52.738;8.316;2023-05-10T21:37:10;9.90;;;8.25;;
6185;SDS011;3126;52.738;8.316;2023-05-10T21:42:10;10.27;;;7.38;;
6185;SDS011;3126;52.738;8.316;2023-05-10T21:47:11;8.50;;;7.40;;
6185;SDS011;3126;52.738;8.316;2023-05-10T21:52:11;9.60;;;7.18;;
6185;SDS011;3126;52.738;8.316;2023-05-10T21:57:12;7.40;;;6.18;;
6185;SDS011;3126;52.738;8.316;2023-05-10T22:02:12;7.18;;;5.88;;
6185;SDS011;3126;52.738;8.316;2023-05-10T22:07:13;7.15;;;5.85;;
6185;SDS011;3126;52.738;8.316;2023-05-10T22:12:15;7.07;;;6.30;;
6185;SDS011;3126;52.738;8.316;2023-05-10T22:17:16;9.38;;;6.50;;
6185;SDS011;3126;52.738;8.316;2023-05-10T22:22:17;7.68;;;5.75;;
6185;SDS011;3126;52.738;8.316;2023-05-10T22:27:17;6.68;;;5.90;;
6185;SDS011;3126;52.738;8.316;2023-05-10T22:32:18;7.78;;;6.28;;
6185;SDS011;3126;52.738;8.316;2023-05-10T22:37:18;8.05;;;6.25;;
6185;SDS011;3126;52.738;8.316;2023-05-10T22:42:19;8.65;;;6.22;;
6185;SDS011;3126;52.738;8.316;2023-05-10T22:47:19;9.27;;;6.47;;
6185;SDS011;3126;52.738;8.316;2023-05-10T22:52:20;8.48;;;6.20;;
6185;SDS011;3126;52.738;8.316;2023-05-10T22:57:20;8.10;;;6.25;;
6185;SDS011;3126;52.738;8.316;2023-05-10T23:02:21;8.07;;;6.40;;
6185;SDS011;3126;52.738;8.316;2023-05-10T23:07:22;10.32;;;5.45;;
6185;SDS011;3126;52.738;8.316;2023-05-10T23:12:23;11.07;;;6.53;;
6185;SDS011;3126;52.738;8.316;2023-05-10T23:17:24;8.93;;;6.68;;
6185;SDS011;3126;52.738;8.316;2023-05-10T23:22:24;8.77;;;5.90;;
6185;SDS011;3126;52.738;8.316;2023-05-10T23:27:28;8.43;;;6.65;;
6185;SDS011;3126;52.738;8.316;2023-05-10T23:32:29;9.43;;;5.85;;
6185;SDS011;3126;52.738;8.316;2023-05-10T23:37:30;9.07;;;6.53;;
6185;SDS011;3126;52.738;8.316;2023-05-10T23:42:31;7.82;;;6.15;;
6185;SDS011;3126;52.738;8.316;2023-05-10T23:47:31;8.73;;;6.47;;
6185;SDS011;3126;52.738;8.316;2023-05-10T23:52:32;8.55;;;6.18;;
6185;SDS011;3126;52.738;8.316;2023-05-10T23:57:32;7.82;;;6.22;;
